sensor_id;sensor_type;location;lat;lon;timestamp;temperature;humidity
5176;DHT22;2607;50.934;6.934;2022-09-02T00:01:48;20.10;69.70
5176;DHT22;2607;50.934;6.934;2022-09-02T00:04:23;20.00;69.60
5176;DHT22;2607;50.934;6.934;2022-09-02T00:06:50;20.00;69.80
5176;DHT22;2607;50.934;6.934;2022-09-02T00:09:18;20.00;70.00
5176;DHT22;2607;50.934;6.934;2022-09-02T00:11:46;20.00;70.00
5176;DHT22;2607;50.934;6.934;2022-09-02T00:14:15;20.00;70.10
5176;DHT22;2607;50.934;6.934;2022-09-02T00:16:42;20.00;70.10
5176;DHT22;2607;50.934;6.934;2022-09-02T00:19:09;20.00;70.20
5176;DHT22;2607;50.934;6.934;2022-09-02T00:21:35;19.90;70.20
5176;DHT22;2607;50.934;6.934;2022-09-02T00:24:02;19.90;70.30
5176;DHT22;2607;50.934;6.934;2022-09-02T00:26:28;19.90;70.30
5176;DHT22;2607;50.934;6.934;2022-09-02T00:28:54;19.90;70.30
5176;DHT22;2607;50.934;6.934;2022-09-02T00:31:20;19.80;70.40
5176;DHT22;2607;50.934;6.934;2022-09-02T00:33:45;19.80;70.50
5176;DHT22;2607;50.934;6.934;2022-09-02T00:36:12;19.80;70.60
5176;DHT22;2607;50.934;6.934;2022-09-02T00:38:38;19.80;70.70
5176;DHT22;2607;50.934;6.934;2022-09-02T00:41:06;19.80;70.80
5176;DHT22;2607;50.934;6.934;2022-09-02T00:43:46;19.80;70.90
5176;DHT22;2607;50.934;6.934;2022-09-02T00:46:14;19.80;71.10
5176;DHT22;2607;50.934;6.934;2022-09-02T00:48:48;19.70;71.10
5176;DHT22;2607;50.934;6.934;2022-09-02T00:51:17;19.70;71.10
5176;DHT22;2607;50.934;6.934;2022-09-02T00:53:45;19.70;71.20
5176;DHT22;2607;50.934;6.934;2022-09-02T00:56:15;19.70;71.40
5176;DHT22;2607;50.934;6.934;2022-09-02T00:58:43;19.70;71.60
5176;DHT22;2607;50.934;6.934;2022-09-02T01:01:09;19.70;71.70
5176;DHT22;2607;50.934;6.934;2022-09-02T01:03:36;19.60;71.70
5176;DHT22;2607;50.934;6.934;2022-09-02T01:06:03;19.60;71.80
5176;DHT22;2607;50.934;6.934;2022-09-02T01:08:31;19.60;71.90
5176;DHT22;2607;50.934;6.934;2022-09-02T01:11:00;19.60;72.00
5176;DHT22;2607;50.934;6.934;2022-09-02T01:13:29;19.60;72.10
5176;DHT22;2607;50.934;6.934;2022-09-02T01:16:09;19.50;72.10
5176;DHT22;2607;50.934;6.934;2022-09-02T01:18:36;19.60;72.40
5176;DHT22;2607;50.934;6.934;2022-09-02T01:21:02;19.50;72.40
5176;DHT22;2607;50.934;6.934;2022-09-02T01:23:29;19.50;72.60
5176;DHT22;2607;50.934;6.934;2022-09-02T01:25:56;19.50;72.70
5176;DHT22;2607;50.934;6.934;2022-09-02T01:28:23;19.50;72.80
5176;DHT22;2607;50.934;6.934;2022-09-02T01:30:52;19.50;73.00
5176;DHT22;2607;50.934;6.934;2022-09-02T01:33:19;19.40;73.10
5176;DHT22;2607;50.934;6.934;2022-09-02T01:35:46;19.40;73.20
5176;DHT22;2607;50.934;6.934;2022-09-02T01:38:11;19.40;73.30
5176;DHT22;2607;50.934;6.934;2022-09-02T01:40:38;19.40;73.50
5176;DHT22;2607;50.934;6.934;2022-09-02T01:43:13;19.40;73.60
5176;DHT22;2607;50.934;6.934;2022-09-02T01:45:40;19.40;73.80
5176;DHT22;2607;50.934;6.934;2022-09-02T01:48:08;19.30;73.90
5176;DHT22;2607;50.934;6.934;2022-09-02T01:50:36;19.30;74.00
5176;DHT22;2607;50.934;6.934;2022-09-02T01:53:02;19.30;74.20
5176;DHT22;2607;50.934;6.934;2022-09-02T01:55:30;19.30;74.50
5176;DHT22;2607;50.934;6.934;2022-09-02T01:57:56;19.30;74.60
5176;DHT22;2607;50.934;6.934;2022-09-02T02:00:23;19.30;74.70
5176;DHT22;2607;50.934;6.934;2022-09-02T02:02:48;19.30;74.80
5176;DHT22;2607;50.934;6.934;2022-09-02T02:05:15;19.30;74.90
5176;DHT22;2607;50.934;6.934;2022-09-02T02:07:42;19.20;74.90
5176;DHT22;2607;50.934;6.934;2022-09-02T02:10:09;19.20;74.90
5176;DHT22;2607;50.934;6.934;2022-09-02T02:12:36;19.20;75.10
5176;DHT22;2607;50.934;6.934;2022-09-02T02:15:06;19.20;75.10
5176;DHT22;2607;50.934;6.934;2022-09-02T02:17:32;19.20;75.30
5176;DHT22;2607;50.934;6.934;2022-09-02T02:19:58;19.10;75.40
5176;DHT22;2607;50.934;6.934;2022-09-02T02:22:24;19.20;75.60
5176;DHT22;2607;50.934;6.934;2022-09-02T02:24:50;19.10;75.50
5176;DHT22;2607;50.934;6.934;2022-09-02T02:27:16;19.10;75.60
5176;DHT22;2607;50.934;6.934;2022-09-02T02:29:41;19.10;75.70
5176;DHT22;2607;50.934;6.934;2022-09-02T02:32:07;19.10;75.80
5176;DHT22;2607;50.934;6.934;2022-09-02T02:34:33;19.10;75.90
5176;DHT22;2607;50.934;6.934;2022-09-02T02:36:59;19.10;76.70
5176;DHT22;2607;50.934;6.934;2022-09-02T02:39:25;19.10;76.00
5176;DHT22;2607;50.934;6.934;2022-09-02T02:41:50;19.10;76.20
5176;DHT22;2607;50.934;6.934;2022-09-02T02:44:16;19.00;76.10
5176;DHT22;2607;50.934;6.934;2022-09-02T02:46:42;19.00;76.20
5176;DHT22;2607;50.934;6.934;2022-09-02T02:49:08;19.00;76.30
5176;DHT22;2607;50.934;6.934;2022-09-02T02:51:34;19.00;76.30
5176;DHT22;2607;50.934;6.934;2022-09-02T02:54:00;19.00;76.60
5176;DHT22;2607;50.934;6.934;2022-09-02T02:56:27;19.00;76.70
5176;DHT22;2607;50.934;6.934;2022-09-02T02:58:54;19.00;76.90
5176;DHT22;2607;50.934;6.934;2022-09-02T03:01:20;19.00;76.80
5176;DHT22;2607;50.934;6.934;2022-09-02T03:03:46;19.00;76.80
5176;DHT22;2607;50.934;6.934;2022-09-02T03:06:12;19.00;76.80
5176;DHT22;2607;50.934;6.934;2022-09-02T03:08:37;19.00;77.00
5176;DHT22;2607;50.934;6.934;2022-09-02T03:11:03;19.00;77.00
5176;DHT22;2607;50.934;6.934;2022-09-02T03:13:30;19.00;76.90
5176;DHT22;2607;50.934;6.934;2022-09-02T03:15:56;18.90;77.00
5176;DHT22;2607;50.934;6.934;2022-09-02T03:18:21;18.90;77.00
5176;DHT22;2607;50.934;6.934;2022-09-02T03:20:47;19.00;77.10
5176;DHT22;2607;50.934;6.934;2022-09-02T03:23:13;18.90;77.00
5176;DHT22;2607;50.934;6.934;2022-09-02T03:25:41;18.90;77.10
5176;DHT22;2607;50.934;6.934;2022-09-02T03:28:07;18.90;77.30
5176;DHT22;2607;50.934;6.934;2022-09-02T03:30:34;18.90;77.40
5176;DHT22;2607;50.934;6.934;2022-09-02T03:33:01;18.80;77.30
5176;DHT22;2607;50.934;6.934;2022-09-02T03:35:28;18.80;77.50
5176;DHT22;2607;50.934;6.934;2022-09-02T03:37:54;18.80;77.60
5176;DHT22;2607;50.934;6.934;2022-09-02T03:40:24;18.80;77.60
5176;DHT22;2607;50.934;6.934;2022-09-02T03:42:50;18.80;77.90
5176;DHT22;2607;50.934;6.934;2022-09-02T03:45:17;18.80;78.00
5176;DHT22;2607;50.934;6.934;2022-09-02T03:47:44;18.80;78.00
5176;DHT22;2607;50.934;6.934;2022-09-02T03:50:37;18.80;78.30
5176;DHT22;2607;50.934;6.934;2022-09-02T03:53:05;18.70;78.00
5176;DHT22;2607;50.934;6.934;2022-09-02T03:55:31;18.70;78.30
5176;DHT22;2607;50.934;6.934;2022-09-02T03:57:57;18.70;77.80
5176;DHT22;2607;50.934;6.934;2022-09-02T04:00:24;18.70;77.90
5176;DHT22;2607;50.934;6.934;2022-09-02T04:02:53;18.70;78.10
5176;DHT22;2607;50.934;6.934;2022-09-02T04:05:20;18.70;78.00
5176;DHT22;2607;50.934;6.934;2022-09-02T04:07:47;18.70;78.00
5176;DHT22;2607;50.934;6.934;2022-09-02T04:10:14;18.70;78.20
5176;DHT22;2607;50.934;6.934;2022-09-02T04:12:40;18.80;78.60
5176;DHT22;2607;50.934;6.934;2022-09-02T04:15:07;18.80;78.70
5176;DHT22;2607;50.934;6.934;2022-09-02T04:17:37;18.70;78.50
5176;DHT22;2607;50.934;6.934;2022-09-02T04:20:05;18.70;78.50
5176;DHT22;2607;50.934;6.934;2022-09-02T04:22:32;18.70;78.30
5176;DHT22;2607;50.934;6.934;2022-09-02T04:24:58;18.70;78.40
5176;DHT22;2607;50.934;6.934;2022-09-02T04:27:24;18.70;78.60
5176;DHT22;2607;50.934;6.934;2022-09-02T04:29:50;18.70;78.70
5176;DHT22;2607;50.934;6.934;2022-09-02T04:32:16;18.70;79.00
5176;DHT22;2607;50.934;6.934;2022-09-02T04:34:41;18.70;79.00
5176;DHT22;2607;50.934;6.934;2022-09-02T04:37:07;18.80;79.20
5176;DHT22;2607;50.934;6.934;2022-09-02T04:39:33;18.70;78.90
5176;DHT22;2607;50.934;6.934;2022-09-02T04:41:58;18.80;79.10
5176;DHT22;2607;50.934;6.934;2022-09-02T04:44:24;18.70;78.90
5176;DHT22;2607;50.934;6.934;2022-09-02T04:46:50;18.70;78.80
5176;DHT22;2607;50.934;6.934;2022-09-02T04:49:16;18.70;78.90
5176;DHT22;2607;50.934;6.934;2022-09-02T04:51:42;18.70;78.70
5176;DHT22;2607;50.934;6.934;2022-09-02T04:54:08;18.70;78.70
5176;DHT22;2607;50.934;6.934;2022-09-02T04:56:33;18.70;78.70
5176;DHT22;2607;50.934;6.934;2022-09-02T04:58:59;18.70;78.70
5176;DHT22;2607;50.934;6.934;2022-09-02T05:01:31;18.70;79.00
5176;DHT22;2607;50.934;6.934;2022-09-02T05:03:58;18.70;78.90
5176;DHT22;2607;50.934;6.934;2022-09-02T05:06:25;18.70;79.00
5176;DHT22;2607;50.934;6.934;2022-09-02T05:08:52;18.70;78.80
5176;DHT22;2607;50.934;6.934;2022-09-02T05:11:22;18.70;78.50
5176;DHT22;2607;50.934;6.934;2022-09-02T05:13:49;18.70;78.40
5176;DHT22;2607;50.934;6.934;2022-09-02T05:16:23;18.70;78.70
5176;DHT22;2607;50.934;6.934;2022-09-02T05:18:50;18.80;78.80
5176;DHT22;2607;50.934;6.934;2022-09-02T05:21:16;18.80;79.20
5176;DHT22;2607;50.934;6.934;2022-09-02T05:23:42;18.80;78.80
5176;DHT22;2607;50.934;6.934;2022-09-02T05:26:09;18.80;78.90
5176;DHT22;2607;50.934;6.934;2022-09-02T05:28:37;18.80;78.50
5176;DHT22;2607;50.934;6.934;2022-09-02T05:31:05;18.80;78.50
5176;DHT22;2607;50.934;6.934;2022-09-02T05:33:33;18.80;78.40
5176;DHT22;2607;50.934;6.934;2022-09-02T05:36:03;18.80;78.70
5176;DHT22;2607;50.934;6.934;2022-09-02T05:38:29;18.80;78.80
5176;DHT22;2607;50.934;6.934;2022-09-02T05:40:56;18.80;78.90
5176;DHT22;2607;50.934;6.934;2022-09-02T05:43:21;18.80;78.70
5176;DHT22;2607;50.934;6.934;2022-09-02T05:45:47;18.90;79.80
5176;DHT22;2607;50.934;6.934;2022-09-02T05:48:13;18.90;80.10
5176;DHT22;2607;50.934;6.934;2022-09-02T05:50:57;19.00;80.90
5176;DHT22;2607;50.934;6.934;2022-09-02T05:53:23;18.90;81.30
5176;DHT22;2607;50.934;6.934;2022-09-02T05:55:51;19.00;80.80
5176;DHT22;2607;50.934;6.934;2022-09-02T05:58:16;19.00;79.80
5176;DHT22;2607;50.934;6.934;2022-09-02T06:00:42;19.00;79.40
5176;DHT22;2607;50.934;6.934;2022-09-02T06:03:08;19.00;80.60
5176;DHT22;2607;50.934;6.934;2022-09-02T06:05:34;19.10;80.00
5176;DHT22;2607;50.934;6.934;2022-09-02T06:08:02;19.10;80.20
5176;DHT22;2607;50.934;6.934;2022-09-02T06:10:28;19.20;80.10
5176;DHT22;2607;50.934;6.934;2022-09-02T06:12:53;19.20;79.00
5176;DHT22;2607;50.934;6.934;2022-09-02T06:15:19;19.20;78.50
5176;DHT22;2607;50.934;6.934;2022-09-02T06:17:45;19.30;78.40
5176;DHT22;2607;50.934;6.934;2022-09-02T06:20:10;19.30;79.30
5176;DHT22;2607;50.934;6.934;2022-09-02T06:22:36;19.30;78.40
5176;DHT22;2607;50.934;6.934;2022-09-02T06:25:02;19.40;78.50
5176;DHT22;2607;50.934;6.934;2022-09-02T06:27:27;19.40;78.00
5176;DHT22;2607;50.934;6.934;2022-09-02T06:29:54;19.40;77.60
5176;DHT22;2607;50.934;6.934;2022-09-02T06:32:19;19.40;77.50
5176;DHT22;2607;50.934;6.934;2022-09-02T06:34:45;19.40;77.40
5176;DHT22;2607;50.934;6.934;2022-09-02T06:37:10;19.40;77.50
5176;DHT22;2607;50.934;6.934;2022-09-02T06:39:36;19.40;77.50
5176;DHT22;2607;50.934;6.934;2022-09-02T06:42:02;19.40;77.60
5176;DHT22;2607;50.934;6.934;2022-09-02T06:44:28;19.40;77.60
5176;DHT22;2607;50.934;6.934;2022-09-02T06:46:56;19.40;77.60
5176;DHT22;2607;50.934;6.934;2022-09-02T06:49:24;19.50;77.60
5176;DHT22;2607;50.934;6.934;2022-09-02T06:51:52;19.50;77.60
5176;DHT22;2607;50.934;6.934;2022-09-02T06:54:20;19.50;77.70
5176;DHT22;2607;50.934;6.934;2022-09-02T06:56:47;19.60;77.80
5176;DHT22;2607;50.934;6.934;2022-09-02T06:59:13;19.60;77.70
5176;DHT22;2607;50.934;6.934;2022-09-02T07:01:39;19.60;77.80
5176;DHT22;2607;50.934;6.934;2022-09-02T07:04:05;19.60;77.80
5176;DHT22;2607;50.934;6.934;2022-09-02T07:06:52;19.60;77.90
5176;DHT22;2607;50.934;6.934;2022-09-02T07:09:21;19.60;77.80
5176;DHT22;2607;50.934;6.934;2022-09-02T07:11:47;19.60;77.80
5176;DHT22;2607;50.934;6.934;2022-09-02T07:14:18;19.60;78.00
5176;DHT22;2607;50.934;6.934;2022-09-02T07:16:50;19.60;78.10
5176;DHT22;2607;50.934;6.934;2022-09-02T07:19:17;19.60;78.70
5176;DHT22;2607;50.934;6.934;2022-09-02T07:21:43;19.60;78.60
5176;DHT22;2607;50.934;6.934;2022-09-02T07:24:11;19.60;78.70
5176;DHT22;2607;50.934;6.934;2022-09-02T07:26:37;19.60;78.70
5176;DHT22;2607;50.934;6.934;2022-09-02T07:29:04;19.60;79.10
5176;DHT22;2607;50.934;6.934;2022-09-02T07:31:36;19.60;79.20
5176;DHT22;2607;50.934;6.934;2022-09-02T07:34:03;19.70;79.30
5176;DHT22;2607;50.934;6.934;2022-09-02T07:36:30;19.70;79.30
5176;DHT22;2607;50.934;6.934;2022-09-02T07:38:55;19.70;79.20
5176;DHT22;2607;50.934;6.934;2022-09-02T07:41:24;19.80;79.60
5176;DHT22;2607;50.934;6.934;2022-09-02T07:43:49;19.90;79.50
5176;DHT22;2607;50.934;6.934;2022-09-02T07:46:16;19.90;79.30
5176;DHT22;2607;50.934;6.934;2022-09-02T07:48:41;19.90;79.30
5176;DHT22;2607;50.934;6.934;2022-09-02T07:51:08;20.00;79.50
5176;DHT22;2607;50.934;6.934;2022-09-02T07:53:34;20.00;79.60
5176;DHT22;2607;50.934;6.934;2022-09-02T07:56:01;20.00;79.60
5176;DHT22;2607;50.934;6.934;2022-09-02T07:58:27;20.10;79.70
5176;DHT22;2607;50.934;6.934;2022-09-02T08:00:52;20.10;79.60
5176;DHT22;2607;50.934;6.934;2022-09-02T08:03:21;20.20;79.60
5176;DHT22;2607;50.934;6.934;2022-09-02T08:05:47;20.20;79.80
5176;DHT22;2607;50.934;6.934;2022-09-02T08:08:15;20.30;79.80
5176;DHT22;2607;50.934;6.934;2022-09-02T08:10:45;20.30;79.70
5176;DHT22;2607;50.934;6.934;2022-09-02T08:13:11;20.40;79.80
5176;DHT22;2607;50.934;6.934;2022-09-02T08:15:37;20.40;79.70
5176;DHT22;2607;50.934;6.934;2022-09-02T08:18:03;20.50;79.70
5176;DHT22;2607;50.934;6.934;2022-09-02T08:20:29;20.60;79.70
5176;DHT22;2607;50.934;6.934;2022-09-02T08:22:56;20.60;79.40
5176;DHT22;2607;50.934;6.934;2022-09-02T08:25:22;20.60;79.30
5176;DHT22;2607;50.934;6.934;2022-09-02T08:27:47;20.70;79.40
5176;DHT22;2607;50.934;6.934;2022-09-02T08:30:13;20.80;79.60
5176;DHT22;2607;50.934;6.934;2022-09-02T08:32:40;20.80;79.20
5176;DHT22;2607;50.934;6.934;2022-09-02T08:35:08;20.80;79.30
5176;DHT22;2607;50.934;6.934;2022-09-02T08:37:35;20.90;80.10
5176;DHT22;2607;50.934;6.934;2022-09-02T08:40:03;20.90;79.40
5176;DHT22;2607;50.934;6.934;2022-09-02T08:42:34;21.00;79.20
5176;DHT22;2607;50.934;6.934;2022-09-02T08:45:06;21.00;78.90
5176;DHT22;2607;50.934;6.934;2022-09-02T08:47:34;21.00;78.80
5176;DHT22;2607;50.934;6.934;2022-09-02T08:50:09;21.10;78.90
5176;DHT22;2607;50.934;6.934;2022-09-02T08:52:41;21.20;79.10
5176;DHT22;2607;50.934;6.934;2022-09-02T08:55:18;21.30;78.90
5176;DHT22;2607;50.934;6.934;2022-09-02T08:57:45;21.30;78.70
5176;DHT22;2607;50.934;6.934;2022-09-02T09:00:12;21.40;78.10
5176;DHT22;2607;50.934;6.934;2022-09-02T09:08:50;21.60;77.00
5176;DHT22;2607;50.934;6.934;2022-09-02T09:11:30;21.60;76.70
5176;DHT22;2607;50.934;6.934;2022-09-02T09:14:06;21.70;77.20
5176;DHT22;2607;50.934;6.934;2022-09-02T09:16:37;21.70;76.40
5176;DHT22;2607;50.934;6.934;2022-09-02T09:19:12;21.80;76.70
5176;DHT22;2607;50.934;6.934;2022-09-02T09:21:39;21.90;75.70
5176;DHT22;2607;50.934;6.934;2022-09-02T09:24:17;21.90;75.50
5176;DHT22;2607;50.934;6.934;2022-09-02T09:26:45;22.00;75.40
5176;DHT22;2607;50.934;6.934;2022-09-02T09:29:11;22.00;75.10
5176;DHT22;2607;50.934;6.934;2022-09-02T09:31:38;22.10;75.30
5176;DHT22;2607;50.934;6.934;2022-09-02T09:34:06;22.10;75.10
5176;DHT22;2607;50.934;6.934;2022-09-02T09:39:30;22.20;74.70
5176;DHT22;2607;50.934;6.934;2022-09-02T09:41:57;22.30;74.90
5176;DHT22;2607;50.934;6.934;2022-09-02T09:47:08;22.40;74.30
5176;DHT22;2607;50.934;6.934;2022-09-02T09:49:36;22.50;73.80
5176;DHT22;2607;50.934;6.934;2022-09-02T09:52:03;22.50;73.50
5176;DHT22;2607;50.934;6.934;2022-09-02T09:54:29;22.60;73.00
5176;DHT22;2607;50.934;6.934;2022-09-02T09:56:55;22.60;73.00
5176;DHT22;2607;50.934;6.934;2022-09-02T09:59:39;22.70;73.10
5176;DHT22;2607;50.934;6.934;2022-09-02T10:02:17;22.80;72.90
5176;DHT22;2607;50.934;6.934;2022-09-02T10:04:44;22.90;72.70
5176;DHT22;2607;50.934;6.934;2022-09-02T10:07:10;22.90;72.50
5176;DHT22;2607;50.934;6.934;2022-09-02T10:09:37;23.00;71.30
5176;DHT22;2607;50.934;6.934;2022-09-02T10:12:12;23.00;70.90
5176;DHT22;2607;50.934;6.934;2022-09-02T10:14:47;23.10;70.40
5176;DHT22;2607;50.934;6.934;2022-09-02T10:17:35;23.10;70.10
5176;DHT22;2607;50.934;6.934;2022-09-02T10:42:07;24.00;65.00
5176;DHT22;2607;50.934;6.934;2022-09-02T10:47:27;24.10;63.90
5176;DHT22;2607;50.934;6.934;2022-09-02T10:55:48;24.20;63.70
5176;DHT22;2607;50.934;6.934;2022-09-02T10:58:18;24.20;63.40
5176;DHT22;2607;50.934;6.934;2022-09-02T11:00:48;24.30;63.20
5176;DHT22;2607;50.934;6.934;2022-09-02T11:08:52;24.60;61.20
5176;DHT22;2607;50.934;6.934;2022-09-02T11:11:26;24.70;59.80
5176;DHT22;2607;50.934;6.934;2022-09-02T11:14:04;24.80;58.80
5176;DHT22;2607;50.934;6.934;2022-09-02T11:16:45;24.80;58.80
5176;DHT22;2607;50.934;6.934;2022-09-02T11:25:01;25.10;57.30
5176;DHT22;2607;50.934;6.934;2022-09-02T11:32:30;25.50;57.50
5176;DHT22;2607;50.934;6.934;2022-09-02T11:34:58;25.60;56.80
5176;DHT22;2607;50.934;6.934;2022-09-02T11:43:30;26.10;57.40
5176;DHT22;2607;50.934;6.934;2022-09-02T11:48:46;26.50;55.20
5176;DHT22;2607;50.934;6.934;2022-09-02T11:51:32;26.50;54.30
5176;DHT22;2607;50.934;6.934;2022-09-02T11:54:02;26.60;54.30
5176;DHT22;2607;50.934;6.934;2022-09-02T11:56:35;26.70;55.30
5176;DHT22;2607;50.934;6.934;2022-09-02T11:59:04;26.70;55.50
5176;DHT22;2607;50.934;6.934;2022-09-02T12:01:49;26.80;55.30
5176;DHT22;2607;50.934;6.934;2022-09-02T12:10:00;26.70;54.00
5176;DHT22;2607;50.934;6.934;2022-09-02T12:23:07;26.80;52.60
5176;DHT22;2607;50.934;6.934;2022-09-02T12:25:34;26.80;51.70
5176;DHT22;2607;50.934;6.934;2022-09-02T12:28:28;26.90;51.30
5176;DHT22;2607;50.934;6.934;2022-09-02T12:33:42;26.80;50.60
5176;DHT22;2607;50.934;6.934;2022-09-02T12:41:43;26.70;50.50
5176;DHT22;2607;50.934;6.934;2022-09-02T12:47:01;26.70;50.60
5176;DHT22;2607;50.934;6.934;2022-09-02T12:49:37;26.70;50.90
5176;DHT22;2607;50.934;6.934;2022-09-02T12:52:51;26.70;51.20
5176;DHT22;2607;50.934;6.934;2022-09-02T12:55:15;26.70;51.20
5176;DHT22;2607;50.934;6.934;2022-09-02T12:57:44;26.70;51.10
5176;DHT22;2607;50.934;6.934;2022-09-02T13:05:49;26.70;51.30
5176;DHT22;2607;50.934;6.934;2022-09-02T13:08:49;26.60;51.30
5176;DHT22;2607;50.934;6.934;2022-09-02T13:11:54;26.60;51.30
5176;DHT22;2607;50.934;6.934;2022-09-02T13:17:44;26.50;51.10
5176;DHT22;2607;50.934;6.934;2022-09-02T13:28:55;26.40;50.90
5176;DHT22;2607;50.934;6.934;2022-09-02T13:31:26;26.40;51.10
5176;DHT22;2607;50.934;6.934;2022-09-02T13:34:05;26.30;51.30
5176;DHT22;2607;50.934;6.934;2022-09-02T13:36:41;26.40;51.70
5176;DHT22;2607;50.934;6.934;2022-09-02T13:41:42;26.40;52.00
5176;DHT22;2607;50.934;6.934;2022-09-02T13:44:11;26.30;51.70
5176;DHT22;2607;50.934;6.934;2022-09-02T13:47:00;26.30;51.80
5176;DHT22;2607;50.934;6.934;2022-09-02T13:49:35;26.30;51.60
5176;DHT22;2607;50.934;6.934;2022-09-02T13:52:02;26.30;51.40
5176;DHT22;2607;50.934;6.934;2022-09-02T13:54:34;26.30;51.40
5176;DHT22;2607;50.934;6.934;2022-09-02T13:57:04;26.20;51.30
5176;DHT22;2607;50.934;6.934;2022-09-02T13:59:38;26.20;51.60
5176;DHT22;2607;50.934;6.934;2022-09-02T14:04:50;26.10;51.70
5176;DHT22;2607;50.934;6.934;2022-09-02T14:07:30;26.00;51.80
5176;DHT22;2607;50.934;6.934;2022-09-02T14:09:59;26.00;51.80
5176;DHT22;2607;50.934;6.934;2022-09-02T14:12:26;26.00;51.80
5176;DHT22;2607;50.934;6.934;2022-09-02T14:14:54;26.00;51.50
5176;DHT22;2607;50.934;6.934;2022-09-02T14:17:22;26.00;51.10
5176;DHT22;2607;50.934;6.934;2022-09-02T14:19:49;26.00;50.90
5176;DHT22;2607;50.934;6.934;2022-09-02T14:22:25;26.00;50.90
5176;DHT22;2607;50.934;6.934;2022-09-02T14:24:51;26.00;50.80
5176;DHT22;2607;50.934;6.934;2022-09-02T14:27:20;25.90;50.80
5176;DHT22;2607;50.934;6.934;2022-09-02T14:29:48;25.90;50.80
5176;DHT22;2607;50.934;6.934;2022-09-02T14:32:22;25.90;51.00
5176;DHT22;2607;50.934;6.934;2022-09-02T14:35:06;25.90;51.30
5176;DHT22;2607;50.934;6.934;2022-09-02T14:37:32;25.90;51.50
5176;DHT22;2607;50.934;6.934;2022-09-02T14:40:05;25.90;51.60
5176;DHT22;2607;50.934;6.934;2022-09-02T14:42:44;25.90;51.50
5176;DHT22;2607;50.934;6.934;2022-09-02T14:45:12;25.90;50.90
5176;DHT22;2607;50.934;6.934;2022-09-02T14:47:39;25.90;50.60
5176;DHT22;2607;50.934;6.934;2022-09-02T14:50:10;25.90;50.80
5176;DHT22;2607;50.934;6.934;2022-09-02T14:52:36;25.90;50.90
5176;DHT22;2607;50.934;6.934;2022-09-02T14:55:03;25.80;50.90
5176;DHT22;2607;50.934;6.934;2022-09-02T14:57:31;25.80;50.90
5176;DHT22;2607;50.934;6.934;2022-09-02T15:00:00;25.70;50.80
5176;DHT22;2607;50.934;6.934;2022-09-02T15:04:52;25.60;50.70
5176;DHT22;2607;50.934;6.934;2022-09-02T15:07:18;25.60;50.60
5176;DHT22;2607;50.934;6.934;2022-09-02T15:09:44;25.60;50.40
5176;DHT22;2607;50.934;6.934;2022-09-02T15:12:11;25.50;50.10
5176;DHT22;2607;50.934;6.934;2022-09-02T15:14:38;25.50;50.30
5176;DHT22;2607;50.934;6.934;2022-09-02T15:17:06;25.50;50.20
5176;DHT22;2607;50.934;6.934;2022-09-02T15:19:32;25.40;50.10
5176;DHT22;2607;50.934;6.934;2022-09-02T15:21:58;25.40;50.30
5176;DHT22;2607;50.934;6.934;2022-09-02T15:24:24;25.30;50.20
5176;DHT22;2607;50.934;6.934;2022-09-02T15:26:50;25.30;50.40
5176;DHT22;2607;50.934;6.934;2022-09-02T15:29:15;25.30;50.80
5176;DHT22;2607;50.934;6.934;2022-09-02T15:31:43;25.20;51.10
5176;DHT22;2607;50.934;6.934;2022-09-02T15:34:08;25.20;51.10
5176;DHT22;2607;50.934;6.934;2022-09-02T15:36:34;25.20;51.50
5176;DHT22;2607;50.934;6.934;2022-09-02T15:38:59;25.10;51.50
5176;DHT22;2607;50.934;6.934;2022-09-02T15:41:25;25.10;51.50
5176;DHT22;2607;50.934;6.934;2022-09-02T15:43:51;25.10;51.70
5176;DHT22;2607;50.934;6.934;2022-09-02T15:46:28;25.00;51.60
5176;DHT22;2607;50.934;6.934;2022-09-02T15:48:55;25.00;51.10
5176;DHT22;2607;50.934;6.934;2022-09-02T15:51:24;25.00;51.20
5176;DHT22;2607;50.934;6.934;2022-09-02T15:53:54;25.00;51.10
5176;DHT22;2607;50.934;6.934;2022-09-02T15:56:22;25.00;51.00
5176;DHT22;2607;50.934;6.934;2022-09-02T15:58:54;24.90;51.10
5176;DHT22;2607;50.934;6.934;2022-09-02T16:01:23;24.90;51.50
5176;DHT22;2607;50.934;6.934;2022-09-02T16:03:49;24.90;51.60
5176;DHT22;2607;50.934;6.934;2022-09-02T16:06:15;24.80;51.60
5176;DHT22;2607;50.934;6.934;2022-09-02T16:08:40;24.80;51.70
5176;DHT22;2607;50.934;6.934;2022-09-02T16:11:07;24.80;51.70
5176;DHT22;2607;50.934;6.934;2022-09-02T16:13:36;24.80;51.80
5176;DHT22;2607;50.934;6.934;2022-09-02T16:16:07;24.80;52.10
5176;DHT22;2607;50.934;6.934;2022-09-02T16:18:35;24.70;52.40
5176;DHT22;2607;50.934;6.934;2022-09-02T16:21:01;24.70;52.30
5176;DHT22;2607;50.934;6.934;2022-09-02T16:23:27;24.70;52.30
5176;DHT22;2607;50.934;6.934;2022-09-02T16:26:24;24.70;52.50
5176;DHT22;2607;50.934;6.934;2022-09-02T16:28:52;24.60;52.80
5176;DHT22;2607;50.934;6.934;2022-09-02T16:31:19;24.60;52.90
5176;DHT22;2607;50.934;6.934;2022-09-02T16:36:20;24.60;53.10
5176;DHT22;2607;50.934;6.934;2022-09-02T16:38:46;24.50;53.10
5176;DHT22;2607;50.934;6.934;2022-09-02T16:41:26;24.50;52.90
5176;DHT22;2607;50.934;6.934;2022-09-02T16:43:53;24.50;52.60
5176;DHT22;2607;50.934;6.934;2022-09-02T16:46:20;24.40;52.70
5176;DHT22;2607;50.934;6.934;2022-09-02T16:48:45;24.40;53.00
5176;DHT22;2607;50.934;6.934;2022-09-02T16:51:11;24.40;53.40
5176;DHT22;2607;50.934;6.934;2022-09-02T16:53:37;24.30;53.50
5176;DHT22;2607;50.934;6.934;2022-09-02T16:56:03;24.30;53.50
5176;DHT22;2607;50.934;6.934;2022-09-02T16:58:29;24.30;53.60
5176;DHT22;2607;50.934;6.934;2022-09-02T17:00:55;24.30;53.60
5176;DHT22;2607;50.934;6.934;2022-09-02T17:03:20;24.30;53.70
5176;DHT22;2607;50.934;6.934;2022-09-02T17:05:46;24.20;53.60
5176;DHT22;2607;50.934;6.934;2022-09-02T17:08:14;24.10;53.60
5176;DHT22;2607;50.934;6.934;2022-09-02T17:10:40;24.10;53.80
5176;DHT22;2607;50.934;6.934;2022-09-02T17:13:06;24.10;54.10
5176;DHT22;2607;50.934;6.934;2022-09-02T17:15:32;24.10;54.10
5176;DHT22;2607;50.934;6.934;2022-09-02T17:17:57;24.10;54.10
5176;DHT22;2607;50.934;6.934;2022-09-02T17:20:23;24.10;54.00
5176;DHT22;2607;50.934;6.934;2022-09-02T17:22:49;24.00;53.90
5176;DHT22;2607;50.934;6.934;2022-09-02T17:25:15;24.00;54.00
5176;DHT22;2607;50.934;6.934;2022-09-02T17:27:41;24.00;54.30
5176;DHT22;2607;50.934;6.934;2022-09-02T17:30:09;23.90;54.60
5176;DHT22;2607;50.934;6.934;2022-09-02T17:32:39;23.90;54.50
5176;DHT22;2607;50.934;6.934;2022-09-02T17:35:09;23.90;54.40
5176;DHT22;2607;50.934;6.934;2022-09-02T17:37:35;23.90;54.00
5176;DHT22;2607;50.934;6.934;2022-09-02T17:40:06;23.80;54.00
5176;DHT22;2607;50.934;6.934;2022-09-02T17:42:32;23.80;54.00
5176;DHT22;2607;50.934;6.934;2022-09-02T17:44:58;23.80;54.10
5176;DHT22;2607;50.934;6.934;2022-09-02T17:47:24;23.70;54.30
5176;DHT22;2607;50.934;6.934;2022-09-02T17:49:50;23.70;54.40
5176;DHT22;2607;50.934;6.934;2022-09-02T17:52:21;23.70;54.40
5176;DHT22;2607;50.934;6.934;2022-09-02T17:54:51;23.70;54.40
5176;DHT22;2607;50.934;6.934;2022-09-02T17:57:35;23.60;54.40
5176;DHT22;2607;50.934;6.934;2022-09-02T18:05:52;23.60;54.60
5176;DHT22;2607;50.934;6.934;2022-09-02T18:11:00;23.50;54.80
5176;DHT22;2607;50.934;6.934;2022-09-02T18:17:35;23.40;54.80
5176;DHT22;2607;50.934;6.934;2022-09-02T18:19:43;23.40;54.70
5176;DHT22;2607;50.934;6.934;2022-09-02T18:25:29;23.30;54.60
5176;DHT22;2607;50.934;6.934;2022-09-02T18:33:48;23.20;54.70
5176;DHT22;2607;50.934;6.934;2022-09-02T18:36:26;23.20;54.80